sensor_id;sensor_type;location;lat;lon;timestamp;temperature;humidity
22532;DHT22;11432;46.924;7.114;2024-02-28T00:01:51;7.70;1.00
22532;DHT22;11432;46.924;7.114;2024-02-28T00:04:17;7.80;1.00
22532;DHT22;11432;46.924;7.114;2024-02-28T00:06:43;7.70;13.60
22532;DHT22;11432;46.924;7.114;2024-02-28T00:09:10;7.70;95.90
22532;DHT22;11432;46.924;7.114;2024-02-28T00:11:36;7.70;99.90
22532;DHT22;11432;46.924;7.114;2024-02-28T00:14:02;7.70;99.90
22532;DHT22;11432;46.924;7.114;2024-02-28T00:16:28;7.70;99.90
22532;DHT22;11432;46.924;7.114;2024-02-28T00:18:53;7.70;99.90
22532;DHT22;11432;46.924;7.114;2024-02-28T00:21:19;7.70;99.90
22532;DHT22;11432;46.924;7.114;2024-02-28T00:23:45;7.70;99.90
22532;DHT22;11432;46.924;7.114;2024-02-28T00:26:12;7.70;1.00
22532;DHT22;11432;46.924;7.114;2024-02-28T00:28:38;7.70;87.00
22532;DHT22;11432;46.924;7.114;2024-02-28T00:31:03;7.70;7.30
22532;DHT22;11432;46.924;7.114;2024-02-28T00:33:29;7.60;21.00
22532;DHT22;11432;46.924;7.114;2024-02-28T00:35:54;7.70;99.90
22532;DHT22;11432;46.924;7.114;2024-02-28T00:38:20;7.60;99.90
22532;DHT22;11432;46.924;7.114;2024-02-28T00:40:46;7.60;99.90
22532;DHT22;11432;46.924;7.114;2024-02-28T00:43:11;7.60;99.90
22532;DHT22;11432;46.924;7.114;2024-02-28T00:45:37;7.60;54.80
22532;DHT22;11432;46.924;7.114;2024-02-28T00:48:03;7.60;51.70
22532;DHT22;11432;46.924;7.114;2024-02-28T00:50:29;7.60;23.00
22532;DHT22;11432;46.924;7.114;2024-02-28T00:52:55;7.60;99.90
22532;DHT22;11432;46.924;7.114;2024-02-28T00:55:20;7.60;99.90
22532;DHT22;11432;46.924;7.114;2024-02-28T00:57:46;7.60;1.00
22532;DHT22;11432;46.924;7.114;2024-02-28T01:00:12;7.60;1.00
22532;DHT22;11432;46.924;7.114;2024-02-28T01:02:37;7.60;1.00
22532;DHT22;11432;46.924;7.114;2024-02-28T01:05:03;7.70;1.00
22532;DHT22;11432;46.924;7.114;2024-02-28T01:07:29;7.70;1.00
22532;DHT22;11432;46.924;7.114;2024-02-28T01:09:54;7.60;1.00
22532;DHT22;11432;46.924;7.114;2024-02-28T01:12:20;7.70;1.00
22532;DHT22;11432;46.924;7.114;2024-02-28T01:14:46;7.70;1.00
22532;DHT22;11432;46.924;7.114;2024-02-28T01:17:11;7.70;99.90
22532;DHT22;11432;46.924;7.114;2024-02-28T01:19:37;7.70;99.90
22532;DHT22;11432;46.924;7.114;2024-02-28T01:22:02;7.80;99.90
22532;DHT22;11432;46.924;7.114;2024-02-28T01:24:28;7.70;99.90
22532;DHT22;11432;46.924;7.114;2024-02-28T01:26:53;7.80;99.90
22532;DHT22;11432;46.924;7.114;2024-02-28T01:29:19;7.80;99.90
22532;DHT22;11432;46.924;7.114;2024-02-28T01:31:44;7.80;50.00
22532;DHT22;11432;46.924;7.114;2024-02-28T01:34:10;7.80;32.20
22532;DHT22;11432;46.924;7.114;2024-02-28T01:36:36;7.80;1.00
22532;DHT22;11432;46.924;7.114;2024-02-28T01:39:01;7.80;1.00
22532;DHT22;11432;46.924;7.114;2024-02-28T01:41:28;7.80;1.00
22532;DHT22;11432;46.924;7.114;2024-02-28T01:43:54;7.80;1.00
22532;DHT22;11432;46.924;7.114;2024-02-28T01:46:23;7.80;1.00
22532;DHT22;11432;46.924;7.114;2024-02-28T01:48:51;7.80;1.00
22532;DHT22;11432;46.924;7.114;2024-02-28T01:51:17;7.80;1.00
22532;DHT22;11432;46.924;7.114;2024-02-28T01:53:44;7.80;1.00
22532;DHT22;11432;46.924;7.114;2024-02-28T01:56:11;7.80;1.00
22532;DHT22;11432;46.924;7.114;2024-02-28T01:58:37;7.80;1.00
22532;DHT22;11432;46.924;7.114;2024-02-28T02:01:04;7.80;1.00
22532;DHT22;11432;46.924;7.114;2024-02-28T02:03:32;7.80;1.00
22532;DHT22;11432;46.924;7.114;2024-02-28T02:06:01;7.80;1.00
22532;DHT22;11432;46.924;7.114;2024-02-28T02:08:27;7.80;1.00
22532;DHT22;11432;46.924;7.114;2024-02-28T02:10:52;7.80;1.00
22532;DHT22;11432;46.924;7.114;2024-02-28T02:13:18;7.80;99.90
22532;DHT22;11432;46.924;7.114;2024-02-28T02:15:44;7.70;99.90
22532;DHT22;11432;46.924;7.114;2024-02-28T02:18:09;7.70;99.90
22532;DHT22;11432;46.924;7.114;2024-02-28T02:20:38;7.70;99.90
22532;DHT22;11432;46.924;7.114;2024-02-28T02:23:05;7.70;99.90
22532;DHT22;11432;46.924;7.114;2024-02-28T02:25:30;7.70;99.90
22532;DHT22;11432;46.924;7.114;2024-02-28T02:27:56;7.60;99.90
22532;DHT22;11432;46.924;7.114;2024-02-28T02:30:22;7.60;99.90
22532;DHT22;11432;46.924;7.114;2024-02-28T02:32:48;7.70;99.90
22532;DHT22;11432;46.924;7.114;2024-02-28T02:35:13;7.60;99.90
22532;DHT22;11432;46.924;7.114;2024-02-28T02:37:43;7.60;99.90
22532;DHT22;11432;46.924;7.114;2024-02-28T02:40:11;7.60;99.90
22532;DHT22;11432;46.924;7.114;2024-02-28T02:42:37;7.70;99.90
22532;DHT22;11432;46.924;7.114;2024-02-28T02:45:03;7.60;99.90
22532;DHT22;11432;46.924;7.114;2024-02-28T02:47:29;7.60;99.90
22532;DHT22;11432;46.924;7.114;2024-02-28T02:49:56;7.60;99.90
22532;DHT22;11432;46.924;7.114;2024-02-28T02:52:21;7.60;99.90
22532;DHT22;11432;46.924;7.114;2024-02-28T02:54:47;7.60;99.90
22532;DHT22;11432;46.924;7.114;2024-02-28T02:57:12;7.60;99.90
22532;DHT22;11432;46.924;7.114;2024-02-28T02:59:38;7.60;99.90
22532;DHT22;11432;46.924;7.114;2024-02-28T03:02:04;7.60;99.90
22532;DHT22;11432;46.924;7.114;2024-02-28T03:04:29;7.60;99.90
22532;DHT22;11432;46.924;7.114;2024-02-28T03:06:55;7.60;99.90
22532;DHT22;11432;46.924;7.114;2024-02-28T03:09:20;7.60;99.90
22532;DHT22;11432;46.924;7.114;2024-02-28T03:11:46;7.60;99.90
22532;DHT22;11432;46.924;7.114;2024-02-28T03:14:12;7.60;99.90
22532;DHT22;11432;46.924;7.114;2024-02-28T03:16:42;7.60;99.90
22532;DHT22;11432;46.924;7.114;2024-02-28T03:19:09;7.60;99.90
22532;DHT22;11432;46.924;7.114;2024-02-28T03:21:35;7.60;99.90
22532;DHT22;11432;46.924;7.114;2024-02-28T03:24:00;7.60;99.90
22532;DHT22;11432;46.924;7.114;2024-02-28T03:26:26;7.60;1.00
22532;DHT22;11432;46.924;7.114;2024-02-28T03:28:51;7.60;1.00
22532;DHT22;11432;46.924;7.114;2024-02-28T03:31:17;7.60;1.00
22532;DHT22;11432;46.924;7.114;2024-02-28T03:33:43;7.50;1.00
22532;DHT22;11432;46.924;7.114;2024-02-28T03:36:08;7.50;1.00
22532;DHT22;11432;46.924;7.114;2024-02-28T03:38:34;7.50;1.00
22532;DHT22;11432;46.924;7.114;2024-02-28T03:40:59;7.50;1.00
22532;DHT22;11432;46.924;7.114;2024-02-28T03:43:25;7.50;1.00
22532;DHT22;11432;46.924;7.114;2024-02-28T03:45:50;7.50;1.00
22532;DHT22;11432;46.924;7.114;2024-02-28T03:48:16;7.50;1.00
22532;DHT22;11432;46.924;7.114;2024-02-28T03:50:42;7.60;1.00
22532;DHT22;11432;46.924;7.114;2024-02-28T03:53:07;7.60;1.00
22532;DHT22;11432;46.924;7.114;2024-02-28T03:55:33;7.60;1.00
22532;DHT22;11432;46.924;7.114;2024-02-28T03:57:58;7.50;1.00
22532;DHT22;11432;46.924;7.114;2024-02-28T04:00:24;7.50;1.00
22532;DHT22;11432;46.924;7.114;2024-02-28T04:02:51;7.50;1.00
22532;DHT22;11432;46.924;7.114;2024-02-28T04:05:17;7.50;1.00
22532;DHT22;11432;46.924;7.114;2024-02-28T04:07:42;7.50;1.00
22532;DHT22;11432;46.924;7.114;2024-02-28T04:10:08;7.50;1.00
22532;DHT22;11432;46.924;7.114;2024-02-28T04:12:36;7.60;99.90
22532;DHT22;11432;46.924;7.114;2024-02-28T04:15:02;7.60;99.90
22532;DHT22;11432;46.924;7.114;2024-02-28T04:17:28;7.60;99.90
22532;DHT22;11432;46.924;7.114;2024-02-28T04:19:54;7.60;99.90
22532;DHT22;11432;46.924;7.114;2024-02-28T04:22:19;7.60;1.00
22532;DHT22;11432;46.924;7.114;2024-02-28T04:24:45;7.60;1.00
22532;DHT22;11432;46.924;7.114;2024-02-28T04:27:11;7.50;1.00
22532;DHT22;11432;46.924;7.114;2024-02-28T04:29:37;7.50;1.00
22532;DHT22;11432;46.924;7.114;2024-02-28T04:32:03;7.50;1.00
22532;DHT22;11432;46.924;7.114;2024-02-28T04:34:29;7.50;1.00
22532;DHT22;11432;46.924;7.114;2024-02-28T04:36:54;7.50;1.00
22532;DHT22;11432;46.924;7.114;2024-02-28T04:39:20;7.50;1.00
22532;DHT22;11432;46.924;7.114;2024-02-28T04:41:45;7.50;1.00
22532;DHT22;11432;46.924;7.114;2024-02-28T04:44:11;7.50;1.00
22532;DHT22;11432;46.924;7.114;2024-02-28T04:46:37;7.50;1.00
22532;DHT22;11432;46.924;7.114;2024-02-28T04:49:03;7.50;1.00
22532;DHT22;11432;46.924;7.114;2024-02-28T04:51:28;7.50;1.00
22532;DHT22;11432;46.924;7.114;2024-02-28T04:53:54;7.50;1.00
22532;DHT22;11432;46.924;7.114;2024-02-28T04:56:19;7.50;1.00
22532;DHT22;11432;46.924;7.114;2024-02-28T04:58:45;7.40;1.00
22532;DHT22;11432;46.924;7.114;2024-02-28T05:01:10;7.40;99.90
22532;DHT22;11432;46.924;7.114;2024-02-28T05:03:37;7.40;99.90
22532;DHT22;11432;46.924;7.114;2024-02-28T05:06:03;7.40;99.90
22532;DHT22;11432;46.924;7.114;2024-02-28T05:08:29;7.40;1.00
22532;DHT22;11432;46.924;7.114;2024-02-28T05:10:55;7.40;1.00
22532;DHT22;11432;46.924;7.114;2024-02-28T05:13:20;7.40;99.90
22532;DHT22;11432;46.924;7.114;2024-02-28T05:15:48;7.40;99.90
22532;DHT22;11432;46.924;7.114;2024-02-28T05:18:13;7.40;51.70
22532;DHT22;11432;46.924;7.114;2024-02-28T05:20:39;7.40;1.00
22532;DHT22;11432;46.924;7.114;2024-02-28T05:23:04;7.40;92.70
22532;DHT22;11432;46.924;7.114;2024-02-28T05:25:30;7.40;1.00
22532;DHT22;11432;46.924;7.114;2024-02-28T05:27:55;7.40;1.00
22532;DHT22;11432;46.924;7.114;2024-02-28T05:30:21;7.40;1.00
22532;DHT22;11432;46.924;7.114;2024-02-28T05:32:47;7.40;1.00
22532;DHT22;11432;46.924;7.114;2024-02-28T05:35:12;7.40;1.00
22532;DHT22;11432;46.924;7.114;2024-02-28T05:37:39;7.40;1.00
22532;DHT22;11432;46.924;7.114;2024-02-28T05:40:07;7.40;1.00
22532;DHT22;11432;46.924;7.114;2024-02-28T05:42:33;7.50;1.00
22532;DHT22;11432;46.924;7.114;2024-02-28T05:44:58;7.50;1.00
22532;DHT22;11432;46.924;7.114;2024-02-28T05:47:24;7.50;1.00
22532;DHT22;11432;46.924;7.114;2024-02-28T05:49:50;7.50;99.90
22532;DHT22;11432;46.924;7.114;2024-02-28T05:52:16;7.50;99.90
22532;DHT22;11432;46.924;7.114;2024-02-28T05:54:41;7.50;99.90
22532;DHT22;11432;46.924;7.114;2024-02-28T05:57:08;7.50;99.90
22532;DHT22;11432;46.924;7.114;2024-02-28T05:59:33;7.50;99.90
22532;DHT22;11432;46.924;7.114;2024-02-28T06:01:59;7.50;99.90
22532;DHT22;11432;46.924;7.114;2024-02-28T06:04:24;7.50;99.90
22532;DHT22;11432;46.924;7.114;2024-02-28T06:06:50;7.50;99.90
22532;DHT22;11432;46.924;7.114;2024-02-28T06:09:16;7.50;99.90
22532;DHT22;11432;46.924;7.114;2024-02-28T06:11:41;7.50;99.90
22532;DHT22;11432;46.924;7.114;2024-02-28T06:14:07;7.50;99.90
22532;DHT22;11432;46.924;7.114;2024-02-28T06:16:33;7.50;99.90
22532;DHT22;11432;46.924;7.114;2024-02-28T06:18:58;7.50;99.90
22532;DHT22;11432;46.924;7.114;2024-02-28T06:21:24;7.50;99.90
22532;DHT22;11432;46.924;7.114;2024-02-28T06:23:50;7.50;99.90
22532;DHT22;11432;46.924;7.114;2024-02-28T06:26:15;7.40;99.90
22532;DHT22;11432;46.924;7.114;2024-02-28T06:28:44;7.40;99.90
22532;DHT22;11432;46.924;7.114;2024-02-28T06:31:16;7.40;99.90
22532;DHT22;11432;46.924;7.114;2024-02-28T06:33:42;7.50;99.90
22532;DHT22;11432;46.924;7.114;2024-02-28T06:36:08;7.40;99.90
22532;DHT22;11432;46.924;7.114;2024-02-28T06:38:34;7.40;99.90
22532;DHT22;11432;46.924;7.114;2024-02-28T06:41:02;7.40;99.90
22532;DHT22;11432;46.924;7.114;2024-02-28T06:43:28;7.40;99.90
22532;DHT22;11432;46.924;7.114;2024-02-28T06:45:53;7.40;99.90
22532;DHT22;11432;46.924;7.114;2024-02-28T06:50:44;7.40;16.90
22532;DHT22;11432;46.924;7.114;2024-02-28T06:53:10;7.40;1.00
22532;DHT22;11432;46.924;7.114;2024-02-28T06:55:36;7.50;1.00
22532;DHT22;11432;46.924;7.114;2024-02-28T06:58:02;7.50;1.00
22532;DHT22;11432;46.924;7.114;2024-02-28T07:00:27;7.50;1.00
22532;DHT22;11432;46.924;7.114;2024-02-28T07:02:53;7.50;1.00
22532;DHT22;11432;46.924;7.114;2024-02-28T07:05:19;7.50;1.00
22532;DHT22;11432;46.924;7.114;2024-02-28T07:07:44;7.50;1.00
22532;DHT22;11432;46.924;7.114;2024-02-28T07:10:10;7.50;1.00
22532;DHT22;11432;46.924;7.114;2024-02-28T07:12:36;7.50;1.00
22532;DHT22;11432;46.924;7.114;2024-02-28T07:15:01;7.50;1.00
22532;DHT22;11432;46.924;7.114;2024-02-28T07:17:27;7.50;1.00
22532;DHT22;11432;46.924;7.114;2024-02-28T07:19:53;7.50;1.00
22532;DHT22;11432;46.924;7.114;2024-02-28T07:22:18;7.50;1.00
22532;DHT22;11432;46.924;7.114;2024-02-28T07:24:44;7.50;1.00
22532;DHT22;11432;46.924;7.114;2024-02-28T07:27:09;7.50;1.00
22532;DHT22;11432;46.924;7.114;2024-02-28T07:29:37;7.50;1.00
22532;DHT22;11432;46.924;7.114;2024-02-28T07:32:02;7.50;1.00
22532;DHT22;11432;46.924;7.114;2024-02-28T07:34:28;7.60;1.00
22532;DHT22;11432;46.924;7.114;2024-02-28T07:36:54;7.60;1.00
22532;DHT22;11432;46.924;7.114;2024-02-28T07:39:19;7.50;1.00
22532;DHT22;11432;46.924;7.114;2024-02-28T07:41:46;7.50;1.00
22532;DHT22;11432;46.924;7.114;2024-02-28T07:44:12;7.60;1.00
22532;DHT22;11432;46.924;7.114;2024-02-28T07:46:37;7.50;1.00
22532;DHT22;11432;46.924;7.114;2024-02-28T07:49:03;7.50;1.00
22532;DHT22;11432;46.924;7.114;2024-02-28T07:51:29;7.60;1.00
22532;DHT22;11432;46.924;7.114;2024-02-28T07:53:54;7.60;1.00
22532;DHT22;11432;46.924;7.114;2024-02-28T07:56:20;7.60;99.90
22532;DHT22;11432;46.924;7.114;2024-02-28T07:58:46;7.60;99.90
22532;DHT22;11432;46.924;7.114;2024-02-28T08:01:12;7.70;1.00
22532;DHT22;11432;46.924;7.114;2024-02-28T08:03:38;7.90;99.90
22532;DHT22;11432;46.924;7.114;2024-02-28T08:06:04;7.80;99.90
22532;DHT22;11432;46.924;7.114;2024-02-28T08:08:30;7.80;99.90
22532;DHT22;11432;46.924;7.114;2024-02-28T08:10:55;7.70;99.90
22532;DHT22;11432;46.924;7.114;2024-02-28T08:13:21;7.60;99.90
22532;DHT22;11432;46.924;7.114;2024-02-28T08:15:47;7.60;99.90
22532;DHT22;11432;46.924;7.114;2024-02-28T08:18:12;7.70;99.90
22532;DHT22;11432;46.924;7.114;2024-02-28T08:20:38;7.70;99.90
22532;DHT22;11432;46.924;7.114;2024-02-28T08:23:05;7.70;99.90
22532;DHT22;11432;46.924;7.114;2024-02-28T08:25:31;7.70;99.90
22532;DHT22;11432;46.924;7.114;2024-02-28T08:27:57;7.70;99.90
22532;DHT22;11432;46.924;7.114;2024-02-28T08:30:22;7.80;99.90
22532;DHT22;11432;46.924;7.114;2024-02-28T08:32:48;7.80;99.90
22532;DHT22;11432;46.924;7.114;2024-02-28T08:35:14;7.90;99.90
22532;DHT22;11432;46.924;7.114;2024-02-28T08:37:40;7.90;99.90
22532;DHT22;11432;46.924;7.114;2024-02-28T08:40:07;7.90;99.90
22532;DHT22;11432;46.924;7.114;2024-02-28T08:42:33;7.90;99.90
22532;DHT22;11432;46.924;7.114;2024-02-28T08:44:59;8.00;99.90
22532;DHT22;11432;46.924;7.114;2024-02-28T08:47:26;8.00;99.90
22532;DHT22;11432;46.924;7.114;2024-02-28T08:49:54;8.00;99.90
22532;DHT22;11432;46.924;7.114;2024-02-28T08:52:21;8.00;99.90
22532;DHT22;11432;46.924;7.114;2024-02-28T08:54:47;8.10;99.90
22532;DHT22;11432;46.924;7.114;2024-02-28T08:57:13;8.10;99.90
22532;DHT22;11432;46.924;7.114;2024-02-28T08:59:38;8.20;99.90
22532;DHT22;11432;46.924;7.114;2024-02-28T09:02:06;8.20;57.10
22532;DHT22;11432;46.924;7.114;2024-02-28T09:04:31;8.20;38.60
22532;DHT22;11432;46.924;7.114;2024-02-28T09:06:57;8.30;1.00
22532;DHT22;11432;46.924;7.114;2024-02-28T09:09:23;8.40;1.00
22532;DHT22;11432;46.924;7.114;2024-02-28T09:11:48;8.40;1.00
22532;DHT22;11432;46.924;7.114;2024-02-28T09:14:14;8.40;1.00
22532;DHT22;11432;46.924;7.114;2024-02-28T09:16:39;8.40;1.00
22532;DHT22;11432;46.924;7.114;2024-02-28T09:19:05;8.50;1.00
22532;DHT22;11432;46.924;7.114;2024-02-28T09:21:31;8.60;1.00
22532;DHT22;11432;46.924;7.114;2024-02-28T09:23:57;8.60;1.00
22532;DHT22;11432;46.924;7.114;2024-02-28T09:26:23;8.70;1.00
22532;DHT22;11432;46.924;7.114;2024-02-28T09:28:48;8.70;1.00
22532;DHT22;11432;46.924;7.114;2024-02-28T09:31:14;8.80;1.00
22532;DHT22;11432;46.924;7.114;2024-02-28T09:33:41;9.00;1.00
22532;DHT22;11432;46.924;7.114;2024-02-28T09:36:06;9.20;1.00
22532;DHT22;11432;46.924;7.114;2024-02-28T09:38:32;9.40;1.00
22532;DHT22;11432;46.924;7.114;2024-02-28T09:41:00;9.60;1.00
22532;DHT22;11432;46.924;7.114;2024-02-28T09:43:31;9.60;1.00
22532;DHT22;11432;46.924;7.114;2024-02-28T09:46:00;9.60;1.00
22532;DHT22;11432;46.924;7.114;2024-02-28T09:48:27;9.60;1.00
22532;DHT22;11432;46.924;7.114;2024-02-28T09:50:59;9.50;1.00
22532;DHT22;11432;46.924;7.114;2024-02-28T09:53:26;9.60;1.00
22532;DHT22;11432;46.924;7.114;2024-02-28T09:55:52;9.50;1.00
22532;DHT22;11432;46.924;7.114;2024-02-28T09:58:18;9.70;1.00
22532;DHT22;11432;46.924;7.114;2024-02-28T10:00:46;9.90;1.00
22532;DHT22;11432;46.924;7.114;2024-02-28T10:03:14;9.80;1.00
22532;DHT22;11432;46.924;7.114;2024-02-28T10:05:43;9.80;1.00
22532;DHT22;11432;46.924;7.114;2024-02-28T10:08:09;9.60;1.00
22532;DHT22;11432;46.924;7.114;2024-02-28T10:10:44;9.60;1.00
22532;DHT22;11432;46.924;7.114;2024-02-28T10:13:09;9.70;1.00
22532;DHT22;11432;46.924;7.114;2024-02-28T10:15:35;9.80;1.00
22532;DHT22;11432;46.924;7.114;2024-02-28T10:18:01;9.80;1.00
22532;DHT22;11432;46.924;7.114;2024-02-28T10:20:26;9.80;1.00
22532;DHT22;11432;46.924;7.114;2024-02-28T10:22:52;9.70;1.00
22532;DHT22;11432;46.924;7.114;2024-02-28T10:25:19;9.70;1.00
22532;DHT22;11432;46.924;7.114;2024-02-28T10:27:46;9.60;1.00
22532;DHT22;11432;46.924;7.114;2024-02-28T10:30:12;9.50;1.00
22532;DHT22;11432;46.924;7.114;2024-02-28T10:32:49;9.60;1.00
22532;DHT22;11432;46.924;7.114;2024-02-28T10:35:17;9.50;1.00
22532;DHT22;11432;46.924;7.114;2024-02-28T10:37:44;9.50;1.00
22532;DHT22;11432;46.924;7.114;2024-02-28T10:40:12;9.50;1.00
22532;DHT22;11432;46.924;7.114;2024-02-28T10:42:42;9.50;1.00
22532;DHT22;11432;46.924;7.114;2024-02-28T10:45:09;9.60;1.00
22532;DHT22;11432;46.924;7.114;2024-02-28T10:47:41;9.70;1.00
22532;DHT22;11432;46.924;7.114;2024-02-28T10:50:07;9.70;1.00
22532;DHT22;11432;46.924;7.114;2024-02-28T10:52:34;9.80;1.00
22532;DHT22;11432;46.924;7.114;2024-02-28T10:55:02;10.00;1.00
22532;DHT22;11432;46.924;7.114;2024-02-28T10:57:28;10.20;1.00
22532;DHT22;11432;46.924;7.114;2024-02-28T10:59:55;10.30;1.00
22532;DHT22;11432;46.924;7.114;2024-02-28T11:02:23;10.80;1.00
22532;DHT22;11432;46.924;7.114;2024-02-28T11:04:52;11.20;62.00
22532;DHT22;11432;46.924;7.114;2024-02-28T11:07:21;11.20;1.00
22532;DHT22;11432;46.924;7.114;2024-02-28T11:09:54;11.40;1.00
22532;DHT22;11432;46.924;7.114;2024-02-28T11:12:27;11.70;99.90
22532;DHT22;11432;46.924;7.114;2024-02-28T11:15:00;11.90;99.90
22532;DHT22;11432;46.924;7.114;2024-02-28T11:17:28;12.20;1.00
22532;DHT22;11432;46.924;7.114;2024-02-28T11:19:54;12.10;1.00
22532;DHT22;11432;46.924;7.114;2024-02-28T11:22:20;11.80;1.00
22532;DHT22;11432;46.924;7.114;2024-02-28T11:24:46;11.60;1.00
22532;DHT22;11432;46.924;7.114;2024-02-28T11:27:12;11.60;1.00
22532;DHT22;11432;46.924;7.114;2024-02-28T11:29:41;11.70;1.00
22532;DHT22;11432;46.924;7.114;2024-02-28T11:32:07;11.70;1.00
22532;DHT22;11432;46.924;7.114;2024-02-28T11:34:34;11.80;1.00
22532;DHT22;11432;46.924;7.114;2024-02-28T11:36:59;11.80;1.00
22532;DHT22;11432;46.924;7.114;2024-02-28T11:39:25;11.70;1.00
22532;DHT22;11432;46.924;7.114;2024-02-28T11:41:52;11.50;99.90
22532;DHT22;11432;46.924;7.114;2024-02-28T11:44:18;11.30;1.00
22532;DHT22;11432;46.924;7.114;2024-02-28T11:46:48;11.20;1.00
22532;DHT22;11432;46.924;7.114;2024-02-28T11:49:14;11.00;99.90
22532;DHT22;11432;46.924;7.114;2024-02-28T11:51:41;10.70;99.90
22532;DHT22;11432;46.924;7.114;2024-02-28T11:54:08;10.70;1.00
22532;DHT22;11432;46.924;7.114;2024-02-28T11:56:36;10.70;1.00
22532;DHT22;11432;46.924;7.114;2024-02-28T11:59:03;10.80;99.90
22532;DHT22;11432;46.924;7.114;2024-02-28T12:01:44;10.70;99.90
22532;DHT22;11432;46.924;7.114;2024-02-28T12:04:11;10.70;99.90
22532;DHT22;11432;46.924;7.114;2024-02-28T12:06:37;10.70;99.90
22532;DHT22;11432;46.924;7.114;2024-02-28T12:09:07;10.70;99.90
22532;DHT22;11432;46.924;7.114;2024-02-28T12:11:36;10.70;99.90
22532;DHT22;11432;46.924;7.114;2024-02-28T12:14:09;10.60;99.90
22532;DHT22;11432;46.924;7.114;2024-02-28T12:16:41;10.70;99.90
22532;DHT22;11432;46.924;7.114;2024-02-28T12:19:10;10.70;1.00
22532;DHT22;11432;46.924;7.114;2024-02-28T12:21:37;10.80;99.90
22532;DHT22;11432;46.924;7.114;2024-02-28T12:24:04;10.80;99.90
22532;DHT22;11432;46.924;7.114;2024-02-28T12:26:30;10.80;99.90
22532;DHT22;11432;46.924;7.114;2024-02-28T12:28:55;10.70;1.00
22532;DHT22;11432;46.924;7.114;2024-02-28T12:31:21;10.60;99.90
22532;DHT22;11432;46.924;7.114;2024-02-28T12:33:47;10.50;99.90
22532;DHT22;11432;46.924;7.114;2024-02-28T12:36:13;10.50;99.90
22532;DHT22;11432;46.924;7.114;2024-02-28T12:38:39;10.50;99.90
22532;DHT22;11432;46.924;7.114;2024-02-28T12:41:06;10.50;99.90
22532;DHT22;11432;46.924;7.114;2024-02-28T12:43:32;10.40;1.00
22532;DHT22;11432;46.924;7.114;2024-02-28T12:45:59;10.40;57.90
22532;DHT22;11432;46.924;7.114;2024-02-28T12:48:24;10.40;41.60
22532;DHT22;11432;46.924;7.114;2024-02-28T12:50:50;10.40;45.60
22532;DHT22;11432;46.924;7.114;2024-02-28T12:53:16;10.50;1.00
22532;DHT22;11432;46.924;7.114;2024-02-28T12:55:41;10.50;99.90
22532;DHT22;11432;46.924;7.114;2024-02-28T12:58:07;10.50;13.40
22532;DHT22;11432;46.924;7.114;2024-02-28T13:00:33;10.50;1.00
22532;DHT22;11432;46.924;7.114;2024-02-28T13:02:59;10.50;1.00
22532;DHT22;11432;46.924;7.114;2024-02-28T13:05:24;10.50;1.00
22532;DHT22;11432;46.924;7.114;2024-02-28T13:07:51;10.60;1.00
22532;DHT22;11432;46.924;7.114;2024-02-28T13:10:18;10.60;1.00
22532;DHT22;11432;46.924;7.114;2024-02-28T13:12:43;10.60;1.00
22532;DHT22;11432;46.924;7.114;2024-02-28T13:15:09;10.60;1.00
22532;DHT22;11432;46.924;7.114;2024-02-28T13:17:35;10.60;1.00
22532;DHT22;11432;46.924;7.114;2024-02-28T13:20:01;10.60;1.00
22532;DHT22;11432;46.924;7.114;2024-02-28T13:22:28;10.60;11.80
22532;DHT22;11432;46.924;7.114;2024-02-28T13:24:53;10.60;1.00
22532;DHT22;11432;46.924;7.114;2024-02-28T13:27:20;10.50;32.80
22532;DHT22;11432;46.924;7.114;2024-02-28T13:29:45;10.60;1.00
22532;DHT22;11432;46.924;7.114;2024-02-28T13:32:11;10.60;1.00
22532;DHT22;11432;46.924;7.114;2024-02-28T13:34:36;10.70;39.60
22532;DHT22;11432;46.924;7.114;2024-02-28T13:37:02;10.60;1.00
22532;DHT22;11432;46.924;7.114;2024-02-28T13:39:27;10.60;1.00
22532;DHT22;11432;46.924;7.114;2024-02-28T13:41:53;10.60;1.00
22532;DHT22;11432;46.924;7.114;2024-02-28T13:44:19;10.70;1.00
22532;DHT22;11432;46.924;7.114;2024-02-28T13:46:45;10.70;1.00
22532;DHT22;11432;46.924;7.114;2024-02-28T13:49:11;10.70;1.00
22532;DHT22;11432;46.924;7.114;2024-02-28T13:51:37;10.60;63.10
22532;DHT22;11432;46.924;7.114;2024-02-28T13:54:03;10.60;56.60
22532;DHT22;11432;46.924;7.114;2024-02-28T13:56:29;10.40;14.10
22532;DHT22;11432;46.924;7.114;2024-02-28T13:58:56;10.30;1.00
22532;DHT22;11432;46.924;7.114;2024-02-28T14:01:22;10.30;1.00
22532;DHT22;11432;46.924;7.114;2024-02-28T14:03:47;10.20;1.00
22532;DHT22;11432;46.924;7.114;2024-02-28T14:06:13;10.10;1.00
22532;DHT22;11432;46.924;7.114;2024-02-28T14:08:39;10.20;1.00
22532;DHT22;11432;46.924;7.114;2024-02-28T14:11:05;10.20;1.00
22532;DHT22;11432;46.924;7.114;2024-02-28T14:13:30;10.10;1.00
22532;DHT22;11432;46.924;7.114;2024-02-28T14:15:56;10.00;1.00
22532;DHT22;11432;46.924;7.114;2024-02-28T14:18:22;10.00;1.00
22532;DHT22;11432;46.924;7.114;2024-02-28T14:20:47;10.00;1.00
22532;DHT22;11432;46.924;7.114;2024-02-28T14:23:13;10.00;1.00
22532;DHT22;11432;46.924;7.114;2024-02-28T14:25:39;10.00;1.00
22532;DHT22;11432;46.924;7.114;2024-02-28T14:28:04;9.90;1.00
22532;DHT22;11432;46.924;7.114;2024-02-28T14:30:30;9.90;1.00
22532;DHT22;11432;46.924;7.114;2024-02-28T14:32:55;10.00;99.90
22532;DHT22;11432;46.924;7.114;2024-02-28T14:35:21;10.00;1.00
22532;DHT22;11432;46.924;7.114;2024-02-28T14:37:47;10.00;1.00
22532;DHT22;11432;46.924;7.114;2024-02-28T14:40:13;9.90;1.00
22532;DHT22;11432;46.924;7.114;2024-02-28T14:42:40;9.90;1.00
22532;DHT22;11432;46.924;7.114;2024-02-28T14:45:07;9.90;99.90
22532;DHT22;11432;46.924;7.114;2024-02-28T14:47:34;9.90;99.90
22532;DHT22;11432;46.924;7.114;2024-02-28T14:50:04;9.90;99.90
22532;DHT22;11432;46.924;7.114;2024-02-28T14:52:31;10.00;99.90
22532;DHT22;11432;46.924;7.114;2024-02-28T14:54:57;10.00;99.90
22532;DHT22;11432;46.924;7.114;2024-02-28T14:57:23;10.00;99.90
22532;DHT22;11432;46.924;7.114;2024-02-28T14:59:48;10.00;99.90
22532;DHT22;11432;46.924;7.114;2024-02-28T15:02:14;10.00;99.90
22532;DHT22;11432;46.924;7.114;2024-02-28T15:04:40;9.90;99.90
22532;DHT22;11432;46.924;7.114;2024-02-28T15:07:06;9.90;99.90
22532;DHT22;11432;46.924;7.114;2024-02-28T15:09:32;9.90;99.90
22532;DHT22;11432;46.924;7.114;2024-02-28T15:11:59;9.80;99.90
22532;DHT22;11432;46.924;7.114;2024-02-28T15:14:25;9.80;99.90
22532;DHT22;11432;46.924;7.114;2024-02-28T15:16:51;9.70;99.90
22532;DHT22;11432;46.924;7.114;2024-02-28T15:19:18;9.60;99.90
22532;DHT22;11432;46.924;7.114;2024-02-28T15:21:45;9.60;99.90
22532;DHT22;11432;46.924;7.114;2024-02-28T15:24:10;9.70;99.90
22532;DHT22;11432;46.924;7.114;2024-02-28T15:26:36;9.60;99.90
22532;DHT22;11432;46.924;7.114;2024-02-28T15:29:01;9.60;99.90
22532;DHT22;11432;46.924;7.114;2024-02-28T15:31:27;9.70;99.90
22532;DHT22;11432;46.924;7.114;2024-02-28T15:33:53;9.60;99.90
22532;DHT22;11432;46.924;7.114;2024-02-28T15:36:19;9.70;99.90
22532;DHT22;11432;46.924;7.114;2024-02-28T15:38:44;9.70;99.90
22532;DHT22;11432;46.924;7.114;2024-02-28T15:41:10;9.60;99.90
22532;DHT22;11432;46.924;7.114;2024-02-28T15:43:36;9.70;99.90
22532;DHT22;11432;46.924;7.114;2024-02-28T15:46:01;9.60;99.90